Terminal Aerodrome Forecast
Issued by NWS

Home | Current Version | Previous Version | Text Only | Print | Product List | Glossary On
Versions: 1 2 3 4 5 6 7 8 9 10 11 12 13 14 15 16 17 18 19 20 21 22 23 24 25 26 27 28 29
440
FTAK31 PAFA 131734
TAFAGA
TAF
PAGA 131734Z 1318/1418 VRB03KT P6SM FEW025
     FM140400 VRB03KT P6SM BKN050
     FM141000 VRB03KT P6SM BKN025=

USA.gov is the U.S. government's official web portal to all federal, state and local government web resources and services.